Etusivu
METAR-TAF:

METAR-TAF

Lentoasemat :

Brønnøysund, Norja

Leveyspiiri: 65-28N, Pituuspiiri: 012-13E, korkeus merenpinnasta: 0 m

Tämänhetkinen sää

Tämä raportti tehtiin 36 minuuttia sitten, kello 22.50 UTC
Tuuli 2 kn etelästä/lounaasta
Lämpötila -1°C
Kosteus 100%
Ilmanpaine 1036 hPa
Näkyvyys: 0300 m
sumua

METAR: ENBN 202250Z 20002KT 0300 FG VV001 M01/M01 Q1036

Aika: 00:26 (23:26 UTC)

Sääennuste

Tämä raportti tehtiin 5 tuntia ja 36 minuuttia sitten, kello 17.50 UTC
Ennuste voimassa 20. päivästä klo 17 UTC - 20. päivään klo 20 UTC
Tuuli 5 kn eri suunnista
Näkyvyys 10 km tai enemmän
Muutamia pilviä 300 ft:n korkeudessa
Hajonneita pilviä 1500 ft:n korkeudessa
Ajoittain
20. päivästä klo 17 UTC - 20. päivään klo 20 UTC
Näkyvyys: 0300 m
Hajonneita pilviä 100 ft:n korkeudessa
sumua

TAF: ENBN 201750Z 2017/2020 VRB05KT 9999 FEW003 BKN015 TEMPO 2017/2020 0300 FG BKN001

Säähavainnot ja -ennusteet yli 4000 lentoasemalta (METAR- ja TAF-raportit).

Käytössä olevat sääasemat on merkitty karttaan keltaisilla ja punaisilla pisteillä.

Aseta hiiri pisteen päälle nähdäksesi sääaseman nimen.

Klikkaa sitten nähdäksesi säähavainnot ja -ennusteet.

Kartan vaihtaminen: klikkaa mustalla rastilla varustettuja vihreitä pisteitä, niin voit zoomata sisään; viivalla varustettua vihreää pistettä, niin voit zoomata ulos tai vihreitä nuolia, niin pääset viereisille kartoille.


METAR-TAF: